Time;durP1;ratioP1;P1;durP2;ratioP2;P2;SDS_P1;SDS_P2;PMS_P1;PMS_P2;Temp;Humidity;BMP_temperature;BMP_pressure;BME280_temperature;BME280_humidity;BME280_pressure;Samples;Min_cycle;Max_cycle;Signal;HPM_P1;HPM_P2
2022/05/23 00:02:18;;;;;;;4.03;1.98;;;17.20;68.20;;;;;;4975161;28;20054;-70
2022/05/23 00:04:47;;;;;;;4.10;1.80;;;17.10;68.40;;;;;;4979440;28;20473;-71
2022/05/23 00:07:29;;;;;;;3.80;1.80;;;17.00;68.80;;;;;;4978780;28;20050;-70
2022/05/23 00:09:56;;;;;;;5.82;2.45;;;17.00;68.90;;;;;;4976195;28;20158;-69
2022/05/23 00:12:24;;;;;;;3.53;1.50;;;17.00;68.80;;;;;;4979609;28;20066;-72
2022/05/23 00:14:51;;;;;;;5.85;2.03;;;17.00;68.60;;;;;;4977705;28;20046;-69
2022/05/23 00:17:21;;;;;;;4.63;1.50;;;17.00;68.60;;;;;;4974334;28;20049;-70
2022/05/23 00:19:50;;;;;;;3.73;1.60;;;17.00;68.80;;;;;;4981160;28;20040;-69
2022/05/23 00:22:18;;;;;;;3.65;1.85;;;16.90;68.80;;;;;;4982162;28;20061;-70
2022/05/23 00:24:46;;;;;;;6.03;2.10;;;16.90;68.90;;;;;;4976122;28;20039;-70
2022/05/23 00:27:14;;;;;;;2.63;1.75;;;16.90;68.80;;;;;;4975435;28;20500;-70
2022/05/23 00:29:41;;;;;;;4.32;1.77;;;16.90;68.80;;;;;;4975546;28;20125;-70
2022/05/23 00:37:42;;;;;;;5.32;1.85;;;16.80;69.20;;;;;;4975109;28;20047;-70
2022/05/23 00:40:30;;;;;;;4.70;1.67;;;16.80;69.20;;;;;;4971420;28;20051;-70
2022/05/23 00:43:13;;;;;;;4.95;1.90;;;16.70;69.10;;;;;;4978411;28;20048;-70
2022/05/23 00:45:41;;;;;;;4.78;1.90;;;16.70;69.00;;;;;;4970817;28;20060;-72
2022/05/23 00:48:09;;;;;;;3.83;1.80;;;16.80;68.80;;;;;;4979758;28;20038;-71
2022/05/23 00:50:40;;;;;;;4.38;1.77;;;16.70;68.80;;;;;;4980111;28;20358;-70
2022/05/23 00:53:09;;;;;;;3.63;1.75;;;16.80;69.10;;;;;;4975168;28;20051;-71
2022/05/23 00:55:43;;;;;;;4.07;2.00;;;16.70;69.20;;;;;;4975479;28;20066;-69
2022/05/23 00:58:18;;;;;;;3.20;1.70;;;16.70;69.20;;;;;;4978705;28;20138;-70
2022/05/23 01:00:45;;;;;;;4.07;1.85;;;16.70;69.30;;;;;;4974269;28;20046;-70
2022/05/23 01:03:16;;;;;;;4.47;1.60;;;16.70;69.50;;;;;;4976874;28;20093;-70
2022/05/23 01:05:47;;;;;;;;;;;16.70;69.50;;;;;;4983139;28;20057;-71
2022/05/23 01:08:16;;;;;;;6.28;1.80;;;16.60;69.70;;;;;;4978311;28;19930;-68
2022/05/23 01:10:47;;;;;;;4.40;1.60;;;16.70;69.50;;;;;;4971210;28;21986;-71
2022/05/23 01:13:14;;;;;;;4.90;2.00;;;16.60;69.60;;;;;;4976209;28;20053;-70
2022/05/23 01:15:44;;;;;;;4.30;1.95;;;16.70;69.50;;;;;;4980295;28;20077;-70
2022/05/23 01:18:11;;;;;;;5.60;1.92;;;16.70;69.70;;;;;;4975445;28;20108;-70
2022/05/23 01:20:44;;;;;;;3.10;1.80;;;16.60;69.60;;;;;;4976347;28;20058;-70
2022/05/23 01:23:25;;;;;;;3.58;1.95;;;16.60;69.80;;;;;;4975543;28;20417;-69
2022/05/23 01:26:12;;;;;;;;;;;16.60;69.40;;;;;;4972614;28;20053;-71
2022/05/23 01:28:50;;;;;;;4.68;1.80;;;16.60;69.30;;;;;;4978052;28;19976;-70
2022/05/23 01:31:57;;;;;;;4.82;1.80;;;16.60;69.30;;;;;;4979888;28;20527;-70
2022/05/23 01:34:29;;;;;;;8.27;2.17;;;16.60;69.20;;;;;;4966736;28;20051;-68
2022/05/23 01:37:02;;;;;;;6.32;2.20;;;16.60;69.50;;;;;;4983006;28;20048;-71
2022/05/23 01:39:35;;;;;;;3.75;1.50;;;16.60;69.60;;;;;;4983062;28;20973;-71
2022/05/23 01:42:05;;;;;;;3.55;1.63;;;16.50;69.60;;;;;;4980354;28;20054;-70
2022/05/23 01:44:32;;;;;;;4.28;2.15;;;16.50;69.80;;;;;;4979560;28;20102;-70
2022/05/23 01:47:18;;;;;;;3.42;2.00;;;16.40;69.90;;;;;;4979679;28;20058;-70
2022/05/23 01:49:59;;;;;;;5.88;1.90;;;16.40;70.10;;;;;;4965989;28;20149;-70
2022/05/23 01:52:46;;;;;;;4.35;1.80;;;16.30;70.10;;;;;;4976884;28;20050;-69
2022/05/23 01:55:22;;;;;;;3.92;2.00;;;16.40;70.10;;;;;;4961669;28;20500;-70
2022/05/23 01:58:13;;;;;;;5.20;2.03;;;16.30;70.10;;;;;;4935453;28;20492;-70
2022/05/23 02:03:36;;;;;;;6.68;2.20;;;16.30;69.70;;;;;;4978229;28;20167;-71
2022/05/23 02:06:03;;;;;;;5.05;2.22;;;16.30;69.50;;;;;;4977971;28;20070;-71
2022/05/23 02:08:30;;;;;;;5.43;2.13;;;16.40;69.50;;;;;;4975279;28;20046;-71
2022/05/23 02:10:57;;;;;;;4.60;1.92;;;16.30;69.60;;;;;;4977563;28;20303;-69
2022/05/23 02:13:34;;;;;;;3.83;2.10;;;16.30;69.80;;;;;;4977793;28;20141;-69
2022/05/23 02:16:01;;;;;;;3.85;2.30;;;16.30;69.70;;;;;;4982307;28;20062;-71
2022/05/23 02:18:54;;;;;;;3.50;1.90;;;16.20;69.90;;;;;;4971658;28;20043;-69
2022/05/23 02:21:21;;;;;;;3.88;2.03;;;16.20;69.80;;;;;;4974767;28;20125;-70
2022/05/23 02:23:49;;;;;;;4.70;2.10;;;16.20;69.90;;;;;;4976264;28;20078;-71
2022/05/23 02:26:15;;;;;;;5.35;2.22;;;16.20;69.70;;;;;;4974593;28;20045;-70
2022/05/23 02:28:58;;;;;;;7.82;2.80;;;16.20;69.70;;;;;;4974347;28;20046;-70
2022/05/23 02:31:28;;;;;;;4.97;2.10;;;16.20;69.70;;;;;;4952511;28;20069;-70
2022/05/23 02:34:02;;;;;;;4.53;2.13;;;16.20;69.60;;;;;;4954154;28;20051;-69
2022/05/23 02:36:43;;;;;;;4.20;2.58;;;16.20;69.20;;;;;;4955780;28;20443;-70
2022/05/23 02:39:13;;;;;;;;;;;16.20;69.10;;;;;;4957104;28;20420;-70
2022/05/23 02:41:42;;;;;;;6.93;2.08;;;16.20;69.00;;;;;;4954823;28;19926;-70
2022/05/23 02:44:13;;;;;;;4.90;2.35;;;16.30;68.90;;;;;;4938476;28;20054;-70
2022/05/23 02:46:40;;;;;;;5.05;2.00;;;16.20;69.00;;;;;;4949525;28;20055;-70
2022/05/23 02:49:11;;;;;;;4.13;2.10;;;16.20;69.30;;;;;;4953817;28;20051;-69
2022/05/23 02:51:42;;;;;;;7.13;2.15;;;16.20;69.40;;;;;;4957209;28;20055;-69
2022/05/23 02:54:11;;;;;;;6.20;1.90;;;16.20;69.10;;;;;;4955014;28;20043;-70
2022/05/23 02:56:40;;;;;;;3.97;2.20;;;16.20;69.00;;;;;;4940310;28;20069;-69
2022/05/23 02:59:08;;;;;;;6.28;2.28;;;16.20;69.20;;;;;;4954140;28;20059;-70
2022/05/23 03:04:30;;;;;;;5.20;1.80;;;16.10;69.70;;;;;;4936972;28;20129;-70
2022/05/23 03:06:58;;;;;;;4.65;2.17;;;16.10;69.80;;;;;;4963484;28;20567;-69
2022/05/23 03:09:27;;;;;;;4.72;1.98;;;16.00;69.90;;;;;;4962618;28;20050;-71
2022/05/23 03:11:54;;;;;;;6.25;2.08;;;16.00;69.50;;;;;;4952594;28;20051;-70
2022/05/23 03:14:27;;;;;;;5.45;2.30;;;16.10;69.70;;;;;;4946363;28;20761;-70
2022/05/23 03:17:02;;;;;;;4.82;2.22;;;16.00;69.90;;;;;;4950501;28;20519;-70
2022/05/23 03:19:29;;;;;;;4.75;2.50;;;16.00;70.30;;;;;;4952031;28;20504;-70
2022/05/23 03:27:30;;;;;;;5.90;2.30;;;16.00;69.60;;;;;;4956037;28;20051;-67
2022/05/23 03:30:10;;;;;;;4.22;2.55;;;16.00;69.60;;;;;;4951057;28;20130;-71
2022/05/23 03:32:47;;;;;;;5.78;2.80;;;16.10;69.50;;;;;;4932488;28;20058;-70
2022/05/23 03:35:14;;;;;;;5.30;2.13;;;16.20;70.00;;;;;;4936422;28;20082;-69
2022/05/23 03:37:42;;;;;;;5.35;2.25;;;16.20;69.90;;;;;;4934554;28;20059;-71
2022/05/23 03:40:10;;;;;;;5.75;2.47;;;16.30;69.60;;;;;;4931101;28;20047;-70
2022/05/23 03:42:43;;;;;;;6.90;2.00;;;16.40;69.40;;;;;;4917144;29;20054;-70
2022/05/23 03:45:11;;;;;;;3.13;1.83;;;16.40;69.00;;;;;;4919782;29;20051;-70
2022/05/23 03:47:43;;;;;;;5.28;2.25;;;16.50;68.90;;;;;;4917530;28;20747;-68
2022/05/23 03:50:17;;;;;;;5.55;2.47;;;16.40;68.90;;;;;;4926013;28;20043;-69
2022/05/23 03:52:44;;;;;;;5.18;2.08;;;16.50;69.00;;;;;;4939837;28;20058;-69
2022/05/23 03:55:18;;;;;;;7.97;2.72;;;16.50;68.70;;;;;;4936021;28;20137;-70
2022/05/23 03:57:49;;;;;;;4.85;2.30;;;16.50;68.80;;;;;;4935636;28;20062;-69
2022/05/23 04:00:17;;;;;;;4.55;2.13;;;16.50;68.70;;;;;;4935391;28;20043;-69
2022/05/23 04:02:44;;;;;;;5.93;2.15;;;16.60;68.60;;;;;;4945404;29;20047;-69
2022/05/23 04:05:17;;;;;;;4.35;2.00;;;16.60;68.40;;;;;;4942508;28;20043;-68
2022/05/23 04:08:08;;;;;;;5.97;2.20;;;16.60;68.30;;;;;;4926912;28;20040;-69
2022/05/23 04:10:42;;;;;;;4.15;2.30;;;16.60;68.50;;;;;;4925257;29;20047;-70
2022/05/23 04:13:13;;;;;;;6.20;2.33;;;16.60;68.40;;;;;;4929939;28;20166;-70
2022/05/23 04:15:41;;;;;;;4.57;1.75;;;16.60;68.70;;;;;;4936165;28;20054;-70
2022/05/23 04:18:10;;;;;;;5.07;2.33;;;16.60;68.80;;;;;;4943162;28;20136;-69
2022/05/23 04:20:39;;;;;;;3.97;2.20;;;16.60;68.80;;;;;;4941840;28;20057;-70
2022/05/23 04:23:19;;;;;;;4.53;2.10;;;16.70;69.00;;;;;;4942897;28;20513;-70
2022/05/23 04:25:49;;;;;;;4.50;2.20;;;16.70;68.80;;;;;;4944922;28;20061;-70
2022/05/23 04:28:19;;;;;;;4.85;2.00;;;16.70;68.90;;;;;;4940564;28;20114;-70
2022/05/23 04:30:47;;;;;;;5.22;2.50;;;16.70;68.70;;;;;;4952681;28;20062;-70
2022/05/23 04:36:10;;;;;;;8.25;2.65;;;16.80;68.70;;;;;;4925992;28;20075;-70
2022/05/23 04:38:42;;;;;;;4.18;2.33;;;16.80;68.60;;;;;;4979129;28;20058;-71
2022/05/23 04:41:09;;;;;;;5.00;2.10;;;16.80;68.50;;;;;;4978180;28;20055;-69
2022/05/23 04:43:55;;;;;;;4.38;1.67;;;16.80;68.50;;;;;;4963050;28;20065;-69
2022/05/23 04:46:25;;;;;;;4.82;1.90;;;16.80;68.40;;;;;;4963103;28;20146;-70
2022/05/23 04:52:26;;;;;;;6.35;2.17;;;16.90;68.40;;;;;;4964112;28;20077;-71
2022/05/23 04:54:53;;;;;;;4.68;1.70;;;16.90;68.00;;;;;;4962821;28;20055;-69
2022/05/23 04:57:20;;;;;;;6.15;2.33;;;16.90;67.90;;;;;;4943865;28;20102;-69
2022/05/23 04:59:47;;;;;;;3.88;2.08;;;16.90;68.10;;;;;;4953983;28;20043;-69
2022/05/23 05:02:23;;;;;;;4.88;2.45;;;16.90;68.00;;;;;;4955534;28;20061;-70
2022/05/23 05:04:56;;;;;;;6.00;2.15;;;16.90;68.40;;;;;;4955049;28;20051;-69
2022/05/23 05:07:23;;;;;;;4.07;2.10;;;16.90;68.40;;;;;;4954131;28;20125;-68
2022/05/23 05:09:54;;;;;;;3.80;2.20;;;16.90;68.60;;;;;;4952656;28;20042;-69
2022/05/23 05:12:21;;;;;;;4.75;2.38;;;16.80;68.60;;;;;;4940559;28;20082;-69
2022/05/23 05:14:48;;;;;;;4.97;2.00;;;16.70;69.00;;;;;;4956742;28;20446;-69
2022/05/23 05:17:18;;;;;;;5.75;2.28;;;16.70;69.70;;;;;;4955115;28;20450;-69
2022/05/23 05:19:45;;;;;;;4.00;2.35;;;16.70;70.10;;;;;;4960351;28;20131;-69
2022/05/23 05:22:31;;;;;;;5.22;2.25;;;16.70;70.00;;;;;;4951038;28;20058;-69
2022/05/23 05:25:32;;;;;;;7.53;2.90;;;16.70;70.00;;;;;;4951920;28;20129;-68
2022/05/23 05:28:03;;;;;;;7.38;2.55;;;16.70;70.10;;;;;;4962515;28;20043;-70
2022/05/23 05:30:30;;;;;;;5.00;2.30;;;16.70;70.20;;;;;;4944167;28;20090;-68
2022/05/23 05:33:02;;;;;;;5.35;2.30;;;16.70;70.10;;;;;;4959914;28;20047;-68
2022/05/23 05:35:37;;;;;;;6.45;2.40;;;16.70;70.10;;;;;;4956478;28;20039;-68
2022/05/23 05:38:09;;;;;;;5.07;2.45;;;16.70;70.10;;;;;;4964107;28;20038;-68
2022/05/23 05:40:38;;;;;;;5.15;2.17;;;16.70;70.20;;;;;;4963674;28;20489;-68
2022/05/23 05:43:09;;;;;;;4.28;2.10;;;16.80;70.00;;;;;;4957118;28;20060;-68
2022/05/23 05:45:41;;;;;;;4.63;2.05;;;16.80;69.90;;;;;;4942454;28;20557;-68
2022/05/23 05:48:21;;;;;;;4.85;2.60;;;16.90;69.80;;;;;;4955582;28;20517;-69
2022/05/23 05:50:50;;;;;;;4.68;2.55;;;16.90;69.60;;;;;;4962379;28;20050;-68
2022/05/23 05:53:20;;;;;;;;;;;16.90;69.90;;;;;;4962802;28;20051;-69
2022/05/23 05:55:49;;;;;;;7.82;2.00;;;16.90;69.90;;;;;;4957678;28;20263;-68
2022/05/23 05:58:18;;;;;;;5.40;2.33;;;17.00;69.70;;;;;;4956982;28;20054;-69
2022/05/23 06:00:49;;;;;;;5.10;2.20;;;17.00;70.10;;;;;;4950914;28;20233;-68
2022/05/23 06:03:17;;;;;;;5.25;2.78;;;17.00;70.50;;;;;;4960048;28;20054;-66
2022/05/23 06:11:31;;;;;;;5.80;2.55;;;17.10;70.60;;;;;;4943120;28;20059;-68
2022/05/23 06:14:06;;;;;;;3.28;1.95;;;17.10;70.50;;;;;;4960497;28;20580;-69
2022/05/23 06:16:38;;;;;;;4.50;1.80;;;17.20;70.30;;;;;;4940742;28;20050;-68
2022/05/23 06:19:14;;;;;;;4.47;2.17;;;17.20;69.20;;;;;;4960963;28;20057;-68
2022/05/23 06:22:05;;;;;;;5.28;2.30;;;17.20;68.10;;;;;;4959116;28;20140;-68
2022/05/23 06:24:33;;;;;;;5.53;1.98;;;17.20;66.60;;;;;;4936394;28;20135;-70
2022/05/23 06:27:07;;;;;;;5.97;2.15;;;17.20;66.50;;;;;;4952965;28;20133;-70
2022/05/23 06:29:49;;;;;;;4.80;2.90;;;17.30;66.30;;;;;;4963850;28;20047;-70
2022/05/23 06:32:34;;;;;;;7.10;2.30;;;17.30;66.30;;;;;;4961048;28;20113;-68
2022/05/23 06:35:01;;;;;;;4.50;2.50;;;17.30;66.40;;;;;;4961426;28;20417;-69
2022/05/23 06:37:29;;;;;;;7.78;2.97;;;17.40;67.00;;;;;;4960270;28;20121;-69
2022/05/23 06:40:12;;;;;;;8.18;2.70;;;17.40;67.30;;;;;;4960954;28;20047;-69
2022/05/23 06:43:15;;;;;;;7.40;2.63;;;17.50;68.10;;;;;;4955085;28;20096;-69
2022/05/23 06:46:13;;;;;;;5.30;2.53;;;17.50;69.30;;;;;;4961942;28;20055;-69
2022/05/23 06:48:40;;;;;;;4.20;2.00;;;17.50;69.70;;;;;;4956684;28;20512;-69
2022/05/23 06:51:28;;;;;;;3.88;2.08;;;17.50;70.30;;;;;;4952308;28;21907;-70
2022/05/23 06:53:56;;;;;;;4.22;1.65;;;17.50;70.80;;;;;;4934138;29;20086;-69
2022/05/23 06:56:29;;;;;;;7.05;2.05;;;17.50;70.60;;;;;;4951638;28;20485;-69
2022/05/23 06:59:02;;;;;;;6.88;2.20;;;17.60;70.50;;;;;;4943715;28;20043;-69
2022/05/23 07:01:34;;;;;;;5.97;2.40;;;17.60;70.50;;;;;;4928804;28;20046;-68
2022/05/23 07:04:24;;;;;;;4.10;1.98;;;17.70;69.80;;;;;;4956055;28;20543;-68
2022/05/23 07:12:41;;;;;;;4.35;2.30;;;17.70;68.90;;;;;;4955275;28;20118;-69
2022/05/23 07:15:10;;;;;;;3.35;1.80;;;17.70;69.40;;;;;;4941412;28;20130;-69
2022/05/23 07:17:40;;;;;;;4.07;1.88;;;17.70;69.90;;;;;;4954576;28;20363;-69
2022/05/23 07:20:20;;;;;;;6.23;1.80;;;17.70;69.90;;;;;;4940992;28;20552;-69
2022/05/23 07:23:05;;;;;;;4.10;1.90;;;17.70;70.10;;;;;;4956583;28;20509;-69
2022/05/23 07:25:36;;;;;;;2.50;1.42;;;17.70;70.40;;;;;;4958003;28;20070;-70
2022/05/23 07:28:04;;;;;;;6.03;2.13;;;17.70;70.50;;;;;;4957775;28;20050;-70
2022/05/23 07:30:33;;;;;;;4.38;2.50;;;17.90;70.60;;;;;;4940655;28;20103;-69
2022/05/23 07:33:00;;;;;;;6.35;2.17;;;17.90;70.30;;;;;;4944451;28;23057;-68
2022/05/23 07:35:46;;;;;;;4.45;1.92;;;18.00;70.30;;;;;;4959491;28;20050;-68
2022/05/23 07:38:13;;;;;;;4.93;2.10;;;18.20;69.70;;;;;;4958108;28;20170;-69
2022/05/23 07:40:42;;;;;;;6.13;2.53;;;18.40;69.50;;;;;;4957934;28;20054;-69
2022/05/23 07:43:16;;;;;;;4.97;2.00;;;18.60;68.90;;;;;;4949562;28;20043;-68
2022/05/23 07:45:44;;;;;;;4.82;1.73;;;18.70;68.70;;;;;;4944095;28;20141;-68
2022/05/23 07:48:12;;;;;;;3.37;1.60;;;18.90;69.10;;;;;;4956917;28;20048;-69
2022/05/23 07:50:44;;;;;;;4.03;1.67;;;19.10;68.60;;;;;;4948326;28;20895;-70
2022/05/23 08:01:45;;;;;;;3.55;1.60;;;20.00;66.50;;;;;;4954985;28;20490;-68
2022/05/23 08:04:12;;;;;;;;;;;20.20;65.80;;;;;;4946815;28;20046;-70
2022/05/23 08:06:44;;;;;;;4.60;1.50;;;20.50;64.50;;;;;;4958567;28;19922;-68
2022/05/23 08:09:12;;;;;;;3.60;1.67;;;20.60;63.00;;;;;;4943587;28;20137;-68
2022/05/23 08:11:47;;;;;;;4.65;1.95;;;20.60;63.40;;;;;;4956746;28;20053;-68
2022/05/23 08:14:15;;;;;;;3.40;1.77;;;20.70;63.10;;;;;;4959239;28;20054;-69
2022/05/23 08:16:54;;;;;;;3.30;1.90;;;20.80;61.90;;;;;;4941325;28;20043;-68
2022/05/23 08:19:30;;;;;;;2.63;1.50;;;20.90;62.30;;;;;;4957839;28;20054;-69
2022/05/23 08:22:07;;;;;;;5.30;1.50;;;21.00;62.30;;;;;;4942219;28;20389;-68
2022/05/23 08:24:38;;;;;;;3.67;1.50;;;21.10;62.30;;;;;;4957585;28;20043;-69
2022/05/23 08:27:05;;;;;;;2.70;1.58;;;21.10;61.60;;;;;;4960085;28;20169;-68
2022/05/23 08:29:36;;;;;;;6.32;2.20;;;21.20;60.90;;;;;;4956657;28;20070;-69
2022/05/23 08:32:11;;;;;;;3.28;1.67;;;21.20;60.60;;;;;;4958655;28;20052;-69
2022/05/23 08:34:49;;;;;;;3.28;2.08;;;21.10;60.30;;;;;;4956704;28;20047;-69
2022/05/23 08:37:17;;;;;;;3.10;1.90;;;21.00;60.60;;;;;;4957625;28;20054;-68
2022/05/23 08:39:44;;;;;;;4.45;1.63;;;20.90;60.70;;;;;;4960000;28;20047;-68
2022/05/23 08:42:27;;;;;;;3.22;2.10;;;20.80;61.20;;;;;;4959836;28;20049;-68
2022/05/23 08:45:14;;;;;;;3.55;1.75;;;20.80;61.40;;;;;;4957694;28;20038;-70
2022/05/23 08:47:55;;;;;;;3.50;1.35;;;20.80;61.20;;;;;;4942938;28;20047;-69
2022/05/23 08:50:25;;;;;;;5.95;1.70;;;20.80;61.20;;;;;;4955191;28;20174;-68
2022/05/23 08:52:58;;;;;;;3.10;1.60;;;20.80;61.30;;;;;;4949294;28;20074;-68
2022/05/23 08:55:49;;;;;;;4.32;1.50;;;20.80;60.70;;;;;;4953275;28;20505;-69
2022/05/23 08:58:37;;;;;;;;;;;20.90;61.40;;;;;;4959236;28;20062;-69
2022/05/23 09:01:10;;;;;;;3.35;1.63;;;21.00;61.50;;;;;;4954864;28;19933;-69
2022/05/23 09:03:42;;;;;;;5.10;3.00;;;21.10;61.60;;;;;;4946609;28;20047;-69
2022/05/23 09:06:14;;;;;;;5.78;2.78;;;21.30;61.40;;;;;;4956760;28;20147;-70
2022/05/23 09:08:49;;;;;;;4.38;1.92;;;21.40;61.80;;;;;;4959812;28;20042;-68
2022/05/23 09:11:24;;;;;;;4.32;2.05;;;21.50;61.70;;;;;;4955771;28;20149;-69
2022/05/23 09:13:52;;;;;;;2.72;1.45;;;21.60;61.30;;;;;;4953819;28;20137;-67
2022/05/23 09:16:19;;;;;;;4.90;1.80;;;21.70;61.30;;;;;;4955326;28;20038;-69
2022/05/23 09:18:52;;;;;;;5.03;1.80;;;21.80;60.90;;;;;;4954285;28;20542;-68
2022/05/23 09:21:19;;;;;;;8.68;4.20;;;21.90;60.70;;;;;;4955476;28;20101;-68
2022/05/23 09:23:51;;;;;;;5.57;2.22;;;22.00;61.30;;;;;;4956617;28;20050;-68
2022/05/23 09:26:25;;;;;;;6.28;3.15;;;22.10;61.20;;;;;;4954012;28;20035;-68
2022/05/23 09:28:52;;;;;;;5.07;2.45;;;22.20;60.90;;;;;;4954619;28;20126;-71
2022/05/23 09:31:30;;;;;;;9.77;3.47;;;22.30;59.90;;;;;;4944734;28;20051;-68
2022/05/23 09:33:59;;;;;;;9.73;4.38;;;22.50;59.40;;;;;;4937718;28;20054;-70
2022/05/23 09:36:32;;;;;;;10.65;4.40;;;22.60;59.00;;;;;;4937490;29;20079;-69
2022/05/23 09:39:01;;;;;;;10.63;5.10;;;22.60;58.50;;;;;;4937353;28;20571;-69
2022/05/23 09:47:45;;;;;;;;;;;22.80;57.90;;;;;;4935430;28;20485;-69
2022/05/23 09:50:28;;;;;;;8.63;3.58;;;22.80;58.10;;;;;;4938990;28;19927;-69
2022/05/23 09:52:57;;;;;;;6.32;2.92;;;22.90;58.20;;;;;;4937880;28;20054;-70
2022/05/23 09:55:28;;;;;;;7.60;2.00;;;22.90;58.20;;;;;;4939031;28;20107;-68
2022/05/23 09:57:59;;;;;;;5.13;2.40;;;23.00;57.80;;;;;;4935390;28;20549;-69
2022/05/23 10:00:34;;;;;;;5.15;2.47;;;23.10;58.10;;;;;;4937330;28;20059;-70
2022/05/23 10:03:04;;;;;;;3.42;1.70;;;23.20;57.90;;;;;;4935712;28;20117;-70
2022/05/23 10:05:36;;;;;;;4.18;1.90;;;23.30;56.90;;;;;;4937989;28;20042;-69
2022/05/23 10:08:14;;;;;;;4.68;1.80;;;23.40;56.80;;;;;;4938522;28;20050;-69
2022/05/23 10:10:54;;;;;;;4.53;2.58;;;23.50;56.40;;;;;;4939068;28;20154;-69
2022/05/23 10:13:24;;;;;;;6.82;1.85;;;23.50;56.40;;;;;;4940270;28;20058;-69
2022/05/23 10:15:55;;;;;;;3.90;1.95;;;23.60;56.00;;;;;;4941516;28;20501;-68
2022/05/23 10:18:26;;;;;;;5.38;1.80;;;23.60;55.80;;;;;;4943535;28;20122;-69
2022/05/23 10:20:55;;;;;;;3.58;1.92;;;23.60;55.80;;;;;;4940817;29;20079;-70
2022/05/23 10:23:23;;;;;;;3.88;1.58;;;23.70;55.50;;;;;;4937236;28;20438;-70
2022/05/23 10:26:01;;;;;;;5.47;1.92;;;23.80;55.70;;;;;;4943182;28;20138;-69
2022/05/23 10:28:36;;;;;;;3.72;1.63;;;23.80;55.60;;;;;;4936128;28;20050;-70
2022/05/23 10:31:06;;;;;;;4.80;1.67;;;23.90;55.00;;;;;;4939743;28;20073;-70
2022/05/23 10:33:35;;;;;;;3.22;1.90;;;23.80;55.10;;;;;;4957347;28;20043;-69
2022/05/23 10:36:07;;;;;;;5.18;1.58;;;23.90;54.80;;;;;;4956542;28;20084;-69
2022/05/23 10:44:28;;;;;;;5.65;2.78;;;24.00;54.60;;;;;;4953161;28;20055;-68
2022/05/23 10:47:08;;;;;;;3.97;2.20;;;24.00;54.70;;;;;;4957228;28;20150;-70
2022/05/23 10:49:45;;;;;;;4.43;2.03;;;24.00;54.40;;;;;;4953207;28;20102;-70
2022/05/23 10:52:20;;;;;;;3.15;1.52;;;24.10;54.30;;;;;;4954960;28;20042;-70
2022/05/23 10:54:56;;;;;;;3.42;1.58;;;24.10;54.40;;;;;;4956248;28;20055;-70
2022/05/23 10:57:37;;;;;;;4.47;1.77;;;24.10;54.40;;;;;;4958056;28;22394;-69
2022/05/23 11:00:08;;;;;;;5.10;1.80;;;24.10;54.30;;;;;;4958609;28;20469;-67
2022/05/23 11:02:50;;;;;;;3.38;1.73;;;24.20;54.20;;;;;;4959281;28;20091;-69
2022/05/23 11:05:27;;;;;;;3.88;1.58;;;24.20;54.20;;;;;;4958550;28;20378;-70
2022/05/23 11:08:09;;;;;;;4.93;1.55;;;24.20;54.30;;;;;;4959046;28;20058;-69
2022/05/23 11:10:42;;;;;;;3.38;1.77;;;24.30;54.50;;;;;;4958741;28;20058;-69
2022/05/23 11:13:22;;;;;;;4.30;1.70;;;24.30;54.20;;;;;;4965202;28;20074;-71
2022/05/23 11:16:06;;;;;;;5.13;1.38;;;24.40;54.20;;;;;;4962312;28;20035;-69
2022/05/23 11:18:48;;;;;;;3.15;1.70;;;24.50;54.20;;;;;;4961776;28;20277;-67
2022/05/23 11:21:23;;;;;;;5.13;1.55;;;24.50;54.20;;;;;;4960322;28;20125;-68
2022/05/23 11:23:55;;;;;;;5.22;1.50;;;24.60;54.00;;;;;;4959654;28;20046;-69
2022/05/23 11:26:26;;;;;;;3.88;1.35;;;24.60;54.00;;;;;;4957417;28;20039;-69
2022/05/23 11:34:34;;;;;;;3.10;1.40;;;24.60;53.80;;;;;;4965380;28;20061;-70
2022/05/23 11:37:42;;;;;;;5.70;1.63;;;24.60;53.80;;;;;;4962095;28;20071;-70
2022/05/23 11:40:01;;;;;;;4.53;1.20;;;24.60;53.80;;;;;;4957771;28;20141;-70
2022/05/23 11:42:43;;;;;;;2.53;1.10;;;24.60;53.80;;;;;;4946678;28;20061;-70
2022/05/23 11:48:45;;;;;;;2.42;1.20;;;24.60;53.60;;;;;;4963240;28;20198;-70
2022/05/23 11:51:18;;;;;;;3.58;1.77;;;24.60;53.70;;;;;;4948574;28;20837;-70
2022/05/23 11:53:55;;;;;;;2.95;1.00;;;24.70;53.50;;;;;;4964559;28;20051;-69
2022/05/23 11:56:41;;;;;;;7.75;1.58;;;24.70;53.40;;;;;;4964373;28;20069;-69
2022/05/23 11:59:10;;;;;;;2.63;1.17;;;24.60;53.50;;;;;;4962984;28;20039;-69
2022/05/23 12:01:38;;;;;;;4.10;1.50;;;24.70;53.40;;;;;;4941281;28;20404;-69
2022/05/23 12:04:21;;;;;;;3.25;1.48;;;24.60;53.40;;;;;;4958890;28;20039;-69
2022/05/23 12:06:48;;;;;;;3.92;2.20;;;24.60;53.50;;;;;;4958997;28;20066;-70
2022/05/23 12:09:28;;;;;;;2.25;1.25;;;24.60;53.60;;;;;;4959380;28;20125;-69
2022/05/23 12:12:43;;;;;;;6.43;2.03;;;24.60;53.70;;;;;;4960286;28;20134;-70
2022/05/23 12:15:32;;;;;;;7.70;2.30;;;24.60;54.00;;;;;;4958863;28;20058;-70
2022/05/23 12:18:01;;;;;;;5.45;1.52;;;24.60;54.30;;;;;;4957907;28;20070;-69
2022/05/23 12:20:31;;;;;;;4.07;1.45;;;24.60;53.90;;;;;;4954136;28;20055;-70
2022/05/23 12:23:17;;;;;;;6.32;1.30;;;24.60;54.00;;;;;;4961700;28;20077;-69
2022/05/23 12:26:20;;;;;;;3.90;1.30;;;24.60;54.20;;;;;;4959915;28;20125;-70
2022/05/23 12:28:52;;;;;;;2.97;1.17;;;24.50;54.50;;;;;;4961757;28;20053;-70
2022/05/23 12:31:21;;;;;;;3.90;1.50;;;24.50;54.40;;;;;;4964684;28;20051;-69
2022/05/23 12:34:07;;;;;;;3.72;1.45;;;24.40;54.70;;;;;;4964675;28;20199;-70
2022/05/23 12:36:38;;;;;;;5.18;1.77;;;24.40;55.00;;;;;;4965477;28;20070;-68
2022/05/23 12:39:45;;;;;;;4.18;1.90;;;24.40;55.00;;;;;;4965349;28;20099;-69
2022/05/23 12:42:35;;;;;;;5.07;2.00;;;24.40;55.50;;;;;;4949418;28;20094;-71
2022/05/23 12:45:20;;;;;;;;;;;24.40;55.60;;;;;;4966026;28;20103;-70
2022/05/23 12:48:12;;;;;;;4.70;1.50;;;24.40;55.50;;;;;;4963877;28;19928;-69
2022/05/23 12:50:53;;;;;;;7.32;1.80;;;24.50;55.60;;;;;;4961167;28;20055;-69
2022/05/23 12:53:32;;;;;;;4.53;1.77;;;24.50;55.60;;;;;;4964629;28;20074;-70
2022/05/23 12:56:28;;;;;;;3.60;1.65;;;24.50;55.80;;;;;;4962551;28;20042;-68
2022/05/23 12:59:26;;;;;;;3.33;1.70;;;24.60;55.70;;;;;;4964911;28;20265;-69
2022/05/23 13:02:02;;;;;;;6.05;2.05;;;24.60;55.50;;;;;;4956612;28;20051;-69
2022/05/23 13:04:35;;;;;;;4.25;1.60;;;24.60;55.40;;;;;;4958225;28;20405;-69
2022/05/23 13:07:07;;;;;;;5.60;2.22;;;24.60;55.30;;;;;;4957762;28;20117;-69
2022/05/23 13:09:44;;;;;;;4.00;2.00;;;24.60;55.80;;;;;;4964069;28;20412;-69
2022/05/23 13:12:18;;;;;;;5.10;2.10;;;24.60;55.90;;;;;;4965404;28;20563;-68
2022/05/23 13:14:52;;;;;;;5.03;2.17;;;24.60;55.80;;;;;;4965958;28;20524;-68
2022/05/23 13:17:41;;;;;;;5.35;2.90;;;24.60;56.00;;;;;;4963977;28;20042;-68
2022/05/23 13:23:12;;;;;;;6.50;2.72;;;24.60;56.20;;;;;;4963307;28;20051;-68
2022/05/23 13:25:40;;;;;;;4.80;2.28;;;24.60;56.40;;;;;;4963886;28;20497;-69
2022/05/23 13:28:12;;;;;;;7.32;1.77;;;24.60;56.30;;;;;;4964315;28;20122;-70
2022/05/23 13:30:44;;;;;;;3.58;1.70;;;24.60;56.40;;;;;;4964444;28;20059;-69
2022/05/23 13:33:15;;;;;;;4.90;1.98;;;24.60;56.50;;;;;;4964612;28;20050;-69
2022/05/23 13:35:44;;;;;;;2.63;1.50;;;24.60;56.50;;;;;;4958770;28;20062;-70
2022/05/23 13:38:29;;;;;;;;;;;24.60;56.60;;;;;;4966301;28;20497;-70
2022/05/23 13:40:59;;;;;;;5.60;1.65;;;24.60;56.70;;;;;;4964958;28;20020;-70
2022/05/23 13:43:46;;;;;;;3.55;1.45;;;24.60;56.90;;;;;;5096590;27;20649;-73
2022/05/23 13:46:18;;;;;;;4.20;1.40;;;24.60;56.50;;;;;;5098123;28;20040;-73
2022/05/23 13:48:50;;;;;;;2.80;1.50;;;24.60;56.70;;;;;;5096114;28;20063;-76
2022/05/23 13:51:24;;;;;;;3.58;1.60;;;24.60;57.10;;;;;;5091542;28;20075;-70
2022/05/23 13:53:57;;;;;;;4.90;1.70;;;24.60;56.80;;;;;;5097177;28;20403;-69
2022/05/23 13:56:26;;;;;;;2.00;1.17;;;24.70;56.90;;;;;;5093651;28;20040;-70
2022/05/23 13:58:58;;;;;;;4.28;1.83;;;24.60;57.10;;;;;;5081782;28;20071;-75
2022/05/23 14:01:33;;;;;;;2.90;1.30;;;24.70;57.40;;;;;;5081351;28;20048;-76
2022/05/23 14:04:05;;;;;;;4.22;1.42;;;24.70;57.00;;;;;;5095391;28;20043;-71
2022/05/23 14:06:36;;;;;;;2.28;1.40;;;24.60;57.60;;;;;;5094139;28;20052;-69
2022/05/23 14:09:06;;;;;;;3.20;1.45;;;24.70;57.50;;;;;;5095303;28;20044;-68
2022/05/23 14:11:36;;;;;;;4.55;1.60;;;24.60;57.30;;;;;;5108333;28;20068;-69
2022/05/23 14:14:18;;;;;;;4.32;1.50;;;24.60;57.70;;;;;;5088716;28;20051;-70
2022/05/23 14:16:56;;;;;;;3.28;1.40;;;24.60;57.40;;;;;;5071764;28;20059;-75
2022/05/23 14:19:26;;;;;;;6.22;1.65;;;24.60;57.50;;;;;;5085949;28;20044;-70
2022/05/23 14:22:08;;;;;;;3.00;1.30;;;24.60;57.40;;;;;;5082460;28;20137;-70
2022/05/23 14:24:41;;;;;;;3.33;1.60;;;24.60;57.70;;;;;;5076110;28;20555;-69
2022/05/23 14:27:16;;;;;;;3.20;1.50;;;24.60;57.80;;;;;;5084352;28;20235;-69
2022/05/23 14:29:45;;;;;;;4.30;1.60;;;24.60;57.80;;;;;;5081330;28;20059;-70
2022/05/23 14:32:14;;;;;;;2.60;1.50;;;24.60;57.80;;;;;;5079579;28;20028;-71